createdAt,value
2019-02-22T00:02:37.281Z,999.90
2019-02-22T00:07:40.660Z,999.90
2019-02-22T00:12:43.945Z,999.90
2019-02-22T00:17:47.330Z,999.90
2019-02-22T00:22:50.691Z,999.90
2019-02-22T00:27:53.982Z,999.90
2019-02-22T00:32:57.601Z,999.90
2019-02-22T00:38:00.885Z,999.90
2019-02-22T00:43:04.173Z,999.90
2019-02-22T00:48:07.460Z,999.90
2019-02-22T00:53:10.865Z,999.90
2019-02-22T00:58:14.165Z,999.90
2019-02-22T01:03:17.494Z,999.90
2019-02-22T01:08:21.097Z,999.90
2019-02-22T01:13:24.466Z,999.90
2019-02-22T01:18:27.775Z,942.33
2019-02-22T01:23:31.501Z,999.90
2019-02-22T01:28:34.805Z,997.77
2019-02-22T01:33:38.114Z,999.90
2019-02-22T01:38:41.579Z,999.90
2019-02-22T01:43:45.655Z,999.90
2019-02-22T01:48:48.953Z,999.90
2019-02-22T01:53:54.081Z,999.90
2019-02-22T01:58:57.775Z,999.90
2019-02-22T02:04:01.081Z,999.90
2019-02-22T02:09:05.254Z,999.90
2019-02-22T02:14:08.549Z,999.90
2019-02-22T02:19:11.836Z,999.90
2019-02-22T02:24:15.130Z,999.90
2019-02-22T02:29:18.405Z,999.90
2019-02-22T02:34:21.758Z,999.90
2019-02-22T02:39:25.055Z,999.90
2019-02-22T02:44:28.745Z,999.47
2019-02-22T02:49:32.037Z,999.90
2019-02-22T02:54:35.738Z,999.90
2019-02-22T02:59:39.438Z,999.90
2019-02-22T03:04:42.713Z,999.90
2019-02-22T03:09:45.993Z,999.90
2019-02-22T03:14:49.667Z,999.90
2019-02-22T03:19:53.362Z,999.90
2019-02-22T03:24:56.683Z,999.90
2019-02-22T03:30:00.697Z,999.90
2019-02-22T03:35:04.391Z,999.90
2019-02-22T03:40:08.192Z,999.90
2019-02-22T03:45:11.535Z,987.43
2019-02-22T03:50:14.847Z,999.90
2019-02-22T03:55:18.150Z,904.67
2019-02-22T04:00:21.442Z,929.03
2019-02-22T04:05:25.153Z,999.90
2019-02-22T04:10:28.459Z,999.90
2019-02-22T04:15:32.098Z,999.90
2019-02-22T04:20:35.650Z,909.80
2019-02-22T04:25:38.957Z,999.90
2019-02-22T04:30:42.657Z,966.73
2019-02-22T04:35:45.935Z,999.90
2019-02-22T04:40:49.630Z,998.00
2019-02-22T04:45:52.912Z,989.57
2019-02-22T04:50:56.190Z,769.80
2019-02-22T04:55:59.474Z,916.90
2019-02-22T05:01:02.771Z,999.90
2019-02-22T05:06:08.445Z,845.67
2019-02-22T05:11:11.804Z,863.87
2019-02-22T05:16:15.494Z,987.93
2019-02-22T05:21:18.772Z,709.97
2019-02-22T05:26:22.647Z,985.37
2019-02-22T05:31:26.017Z,800.03
2019-02-22T05:36:29.318Z,733.17
2019-02-22T05:41:33.115Z,977.77
2019-02-22T05:46:36.386Z,750.07
2019-02-22T05:51:39.660Z,765.07
2019-02-22T05:56:43.211Z,896.60
2019-02-22T06:01:46.494Z,903.70
2019-02-22T06:06:49.771Z,577.20
2019-02-22T06:11:53.477Z,816.83
2019-02-22T06:16:56.759Z,771.50
2019-02-22T06:22:00.119Z,702.13
2019-02-22T06:27:03.798Z,595.67
2019-02-22T06:32:07.057Z,445.80
2019-02-22T06:37:10.608Z,856.77
2019-02-22T06:42:13.882Z,397.20
2019-02-22T06:47:17.590Z,633.77
2019-02-22T06:52:20.872Z,358.40
2019-02-22T06:57:24.320Z,434.73
2019-02-22T07:02:28.066Z,559.87
2019-02-22T07:07:31.757Z,528.03
2019-02-22T07:12:38.683Z,535.47
2019-02-22T07:17:41.962Z,337.70
2019-02-22T07:22:45.250Z,194.13
2019-02-22T07:27:48.574Z,572.17
2019-02-22T07:32:51.903Z,355.33
2019-02-22T07:37:55.201Z,39.43
2019-02-22T07:43:07.711Z,189.23
2019-02-22T07:48:04.266Z,307.10
2019-02-22T07:53:07.549Z,162.20
2019-02-22T07:58:11.094Z,278.53
2019-02-22T08:03:14.370Z,78.80
2019-02-22T08:08:17.676Z,185.13
2019-02-22T08:13:21.458Z,208.03
2019-02-22T08:18:24.930Z,324.87
2019-02-22T08:23:28.253Z,139.40
2019-02-22T08:28:31.553Z,87.67
2019-02-22T08:33:34.841Z,177.63
2019-02-22T08:38:38.157Z,193.90
2019-02-22T08:43:41.466Z,180.27
2019-02-22T08:48:44.781Z,349.23
2019-02-22T08:53:48.098Z,484.07
2019-02-22T08:58:51.387Z,240.80
2019-02-22T09:03:55.133Z,226.03
2019-02-22T09:08:58.874Z,357.13
2019-02-22T09:14:02.848Z,104.87
2019-02-22T09:19:06.123Z,209.37
2019-02-22T09:24:09.991Z,69.03
2019-02-22T09:29:13.757Z,173.60
2019-02-22T09:34:17.242Z,49.97
2019-02-22T09:39:20.691Z,352.30
2019-02-22T09:44:30.260Z,383.90
2019-02-22T09:49:38.078Z,143.97
2019-02-22T09:54:45.644Z,92.13
2019-02-22T09:59:51.556Z,224.50
2019-02-22T10:04:56.811Z,104.80
2019-02-22T10:10:02.800Z,84.97
2019-02-22T10:15:07.188Z,65.20
2019-02-22T10:20:12.215Z,175.17
2019-02-22T10:25:24.573Z,106.50
2019-02-22T10:30:30.166Z,295.03
2019-02-22T10:35:34.312Z,33.63
2019-02-22T10:40:43.858Z,186.57
2019-02-22T10:45:48.145Z,13.40
2019-02-22T10:50:59.065Z,25.50
2019-02-22T10:56:01.169Z,14.57
2019-02-22T11:01:05.331Z,74.70
2019-02-22T11:06:08.639Z,31.00
2019-02-22T11:11:13.494Z,31.43
2019-02-22T11:16:18.190Z,162.17
2019-02-22T11:21:23.225Z,88.37
2019-02-22T11:26:27.192Z,67.80
2019-02-22T11:31:33.505Z,55.30
2019-02-22T11:36:42.910Z,82.07
2019-02-22T11:41:49.668Z,184.10
2019-02-22T11:46:53.905Z,175.60
2019-02-22T11:51:57.334Z,49.53
2019-02-22T11:57:00.630Z,27.93
2019-02-22T12:02:04.001Z,63.53
2019-02-22T12:07:07.322Z,32.27
2019-02-22T12:12:10.832Z,15.07
2019-02-22T12:17:14.138Z,18.23
2019-02-22T12:22:17.405Z,23.13
2019-02-22T12:27:20.694Z,182.23
2019-02-22T12:32:23.978Z,28.10
2019-02-22T12:37:27.691Z,27.30
2019-02-22T12:42:30.991Z,20.80
2019-02-22T12:47:34.913Z,66.83
2019-02-22T12:52:38.464Z,28.30
2019-02-22T12:57:41.841Z,25.50
2019-02-22T13:02:45.431Z,21.23
2019-02-22T13:07:48.700Z,43.07
2019-02-22T13:12:52.390Z,73.77
2019-02-22T13:17:55.693Z,22.67
2019-02-22T13:22:59.414Z,30.63
2019-02-22T13:28:03.379Z,53.30
2019-02-22T13:33:07.158Z,40.27
2019-02-22T13:38:10.421Z,12.40
2019-02-22T13:43:13.717Z,22.70
2019-02-22T13:48:17.016Z,32.53
2019-02-22T13:53:20.316Z,17.37
2019-02-22T13:58:23.696Z,33.03
2019-02-22T14:03:27.081Z,19.10
2019-02-22T14:08:30.405Z,24.33
2019-02-22T14:13:33.697Z,16.27
2019-02-22T14:18:36.992Z,54.30
2019-02-22T14:23:40.293Z,16.13
2019-02-22T14:28:44.026Z,18.53
2019-02-22T14:33:47.314Z,15.43
2019-02-22T14:38:51.129Z,11.33
2019-02-22T14:43:54.497Z,10.00
2019-02-22T14:48:57.790Z,11.33
2019-02-22T14:54:01.855Z,17.63
2019-02-22T14:59:05.692Z,10.83
2019-02-22T15:04:10.010Z,9.87
2019-02-22T15:09:13.463Z,28.00
2019-02-22T15:14:18.128Z,10.50
2019-02-22T15:19:22.304Z,12.07
2019-02-22T15:24:26.318Z,18.37
2019-02-22T15:29:30.046Z,13.27
2019-02-22T15:34:33.810Z,13.70
2019-02-22T15:39:37.603Z,13.77
2019-02-22T15:44:40.925Z,15.70
2019-02-22T15:49:44.353Z,19.03
2019-02-22T15:54:48.410Z,18.00
2019-02-22T15:59:51.773Z,9.43
2019-02-22T16:05:02.575Z,11.97
2019-02-22T16:10:06.069Z,11.73
2019-02-22T16:15:10.490Z,16.30
2019-02-22T16:20:13.800Z,17.20
2019-02-22T16:25:35.815Z,19.87
2019-02-22T16:30:39.513Z,24.13
2019-02-22T16:35:43.509Z,42.97
2019-02-22T16:40:47.072Z,20.97
2019-02-22T16:45:50.354Z,13.50
2019-02-22T16:50:54.512Z,15.50
2019-02-22T16:55:57.804Z,17.60
2019-02-22T17:01:01.075Z,25.50
2019-02-22T17:06:04.606Z,23.80
2019-02-22T17:11:07.949Z,22.70
2019-02-22T17:16:11.494Z,25.03
2019-02-22T17:21:14.765Z,20.60
2019-02-22T17:26:18.140Z,17.40
2019-02-22T17:31:21.915Z,16.20
2019-02-22T17:36:27.205Z,12.87
2019-02-22T17:41:52.419Z,14.83
2019-02-22T17:47:00.337Z,15.93
2019-02-22T17:52:03.665Z,31.77
2019-02-22T17:57:11.762Z,44.67
2019-02-22T18:02:18.869Z,40.80
2019-02-22T18:07:22.516Z,54.17
2019-02-22T18:12:27.204Z,47.57
2019-02-22T18:17:37.473Z,45.90
2019-02-22T18:22:43.560Z,28.17
2019-02-22T18:27:47.536Z,16.50
2019-02-22T18:32:51.557Z,11.13
2019-02-22T18:37:55.490Z,9.53
2019-02-22T18:42:59.202Z,8.77
2019-02-22T18:48:02.937Z,8.60
2019-02-22T18:53:06.726Z,15.50
2019-02-22T18:58:10.689Z,19.57
2019-02-22T19:03:14.440Z,30.90
2019-02-22T19:08:18.226Z,32.20
2019-02-22T19:13:21.902Z,23.07
2019-02-22T19:18:25.649Z,31.50
2019-02-22T19:23:29.549Z,34.20
2019-02-22T19:28:33.253Z,46.97
2019-02-22T19:33:37.265Z,48.20
2019-02-22T19:38:41.018Z,60.13
2019-02-22T19:43:44.729Z,69.80
2019-02-22T19:48:48.493Z,60.40
2019-02-22T19:53:52.202Z,58.53
2019-02-22T19:58:55.894Z,38.23
2019-02-22T20:03:59.637Z,27.27
2019-02-22T20:09:27.481Z,33.23
2019-02-22T20:14:31.709Z,30.97
2019-02-22T20:19:35.773Z,52.57
2019-02-22T20:24:39.891Z,27.30
2019-02-22T20:29:43.937Z,25.30
2019-02-22T20:34:47.630Z,25.77
2019-02-22T20:40:07.292Z,28.10
2019-02-22T20:45:11.232Z,43.40
2019-02-22T20:51:02.211Z,73.57
2019-02-22T20:56:13.726Z,88.50
2019-02-22T21:01:17.805Z,53.63
2019-02-22T21:06:21.477Z,23.87
2019-02-22T21:11:25.243Z,29.97
2019-02-22T21:16:29.221Z,36.07
2019-02-22T21:21:32.897Z,40.70
2019-02-22T21:26:36.619Z,44.27
2019-02-22T21:31:40.337Z,32.43
2019-02-22T21:36:44.317Z,23.20
2019-02-22T21:41:48.325Z,18.03
2019-02-22T21:46:51.997Z,13.83
2019-02-22T21:51:55.723Z,11.50
2019-02-22T21:56:59.410Z,9.83
2019-02-22T22:02:03.942Z,8.97
2019-02-22T22:07:10.228Z,8.53
2019-02-22T22:12:14.355Z,7.43
2019-02-22T22:17:18.122Z,9.13
2019-02-22T22:22:22.317Z,11.47
2019-02-22T22:27:26.466Z,13.17
2019-02-22T22:32:30.479Z,15.50
2019-02-22T22:37:34.360Z,14.13
2019-02-22T22:42:38.226Z,14.97
2019-02-22T22:47:42.342Z,15.73
2019-02-22T22:52:46.161Z,14.60
2019-02-22T22:57:49.944Z,15.60
2019-02-22T23:02:53.866Z,13.17
2019-02-22T23:07:57.615Z,11.37
2019-02-22T23:13:01.297Z,10.50
2019-02-22T23:18:05.133Z,8.90
2019-02-22T23:23:09.177Z,9.53
2019-02-22T23:28:13.093Z,9.30
2019-02-22T23:33:16.762Z,9.77
2019-02-22T23:38:20.430Z,8.30
2019-02-22T23:43:24.099Z,9.73
2019-02-22T23:48:27.762Z,10.70
2019-02-22T23:53:31.433Z,10.00
2019-02-22T23:58:35.113Z,10.90
